Time;durP1;ratioP1;P1;durP2;ratioP2;P2;SDS_P1;SDS_P2;PMS_P1;PMS_P2;Temp;Humidity;BMP_temperature;BMP_pressure;BME280_temperature;BME280_humidity;BME280_pressure;Samples;Min_cycle;Max_cycle;Signal;HPM_P1;HPM_P2
2021/04/06 00:01:43;;;;;;;;;;;;;;;2.03;99.20;97889.16;1798368;80;21364;-70
2021/04/06 00:04:13;;;;;;;;;;;;;;;2.05;98.75;97895.55;1798268;80;20151;-71
2021/04/06 00:06:43;;;;;;;;;;;;;;;2.05;99.01;97891.58;1771783;80;20150;-71
2021/04/06 00:09:13;;;;;;;;;;;;;;;2.05;98.90;97885.77;1798321;80;20110;-71
2021/04/06 00:11:41;;;;;;;;;;;;;;;2.01;98.91;97892.59;1798298;80;20139;-70
2021/04/06 00:14:09;;;;;;;;;;;;;;;2.08;98.06;97897.71;1798400;80;21379;-71
2021/04/06 00:16:38;;;;;;;;;;;;;;;2.07;98.33;97895.59;1772333;80;20111;-71
2021/04/06 00:19:05;;;;;;;;;;;;;;;2.05;98.98;97897.67;1798314;80;20158;-71
2021/04/06 00:21:33;;;;;;;;;;;;;;;2.04;98.96;97896.08;1772057;80;20126;-71
2021/04/06 00:24:01;;;;;;;;;;;;;;;2.00;98.67;97895.47;1771851;80;20238;-71
2021/04/06 00:26:47;;;;;;;;;;;;;;;1.95;99.07;97894.86;1792278;80;21204;-71
2021/04/06 00:29:16;;;;;;;;;;;;;;;1.96;98.72;97890.36;1682100;85;20249;-71
2021/04/06 00:31:47;;;;;;;;;;;;;;;2.00;98.52;97889.65;1682202;85;20178;-71
2021/04/06 00:34:19;;;;;;;;;;;;;;;2.00;98.41;97885.68;1682271;85;20155;-71
2021/04/06 00:36:53;;;;;;;;;;;;;;;2.07;98.46;97886.86;1682250;85;20581;-70
2021/04/06 00:39:28;;;;;;;;;;;;;;;2.06;98.47;97891.88;1682178;85;21182;-70
2021/04/06 00:41:57;;;;;;;;;;;;;;;2.04;98.34;97884.70;1682092;85;20271;-71
2021/04/06 00:44:24;;;;;;;;;;;;;;;2.02;98.22;97884.92;1659488;85;20179;-71
2021/04/06 00:46:52;;;;;;;;;;;;;;;2.01;98.28;97882.50;1682169;85;20210;-71
2021/04/06 00:49:28;;;;;;;;;;;;;;;2.03;98.43;97887.84;1681617;85;20254;-70
2021/04/06 00:51:57;;;;;;;;;;;;;;;2.00;97.60;97880.39;1682178;85;21224;-70
2021/04/06 00:54:25;;;;;;;;;;;;;;;2.11;97.74;97880.05;1682142;85;20135;-70
2021/04/06 00:56:57;;;;;;;;;;;;;;;2.19;96.73;97884.94;1659444;85;20158;-70
2021/04/06 00:59:24;;;;;;;;;;;;;;;2.22;96.62;97875.19;1682132;85;20163;-70
2021/04/06 01:01:58;;;;;;;;;;;;;;;2.31;95.89;97880.38;1682330;85;20198;-70
2021/04/06 01:04:28;;;;;;;;;;;;;;;2.32;95.36;97879.31;1705906;80;21216;-70
2021/04/06 01:07:14;;;;;;;;;;;;;;;2.35;95.56;97884.15;1789350;80;20139;-70
2021/04/06 01:09:46;;;;;;;;;;;;;;;2.34;95.74;97875.91;1789525;80;20135;-70
2021/04/06 01:12:17;;;;;;;;;;;;;;;2.35;94.72;97872.73;1789692;80;20517;-70
2021/04/06 01:14:47;;;;;;;;;;;;;;;2.35;95.44;97868.77;1789603;80;20155;-70
2021/04/06 01:17:19;;;;;;;;;;;;;;;2.31;95.48;97871.63;1789598;80;21265;-70
2021/04/06 01:19:47;;;;;;;;;;;;;;;2.30;95.00;97880.10;1789575;80;20262;-70
2021/04/06 01:22:17;;;;;;;;;;;;;;;2.32;95.98;97875.88;1789662;80;20238;-70
2021/04/06 01:24:45;;;;;;;;;;;;;;;2.33;95.04;97870.34;1789490;80;20496;-70
2021/04/06 01:27:15;;;;;;;;;;;;;;;2.34;94.86;97874.59;1764571;80;20250;-71
2021/04/06 01:29:54;;;;;;;;;;;;;;;2.36;94.74;97873.83;1766750;80;21195;-70
2021/04/06 01:32:23;;;;;;;;;;;;;;;2.36;94.32;97869.86;1792881;80;20147;-71
2021/04/06 01:34:52;;;;;;;;;;;;;;;2.41;93.52;97871.78;1792950;80;20155;-71
2021/04/06 01:37:24;;;;;;;;;;;;;;;2.45;93.26;97868.94;1761104;80;20230;-71
2021/04/06 01:39:53;;;;;;;;;;;;;;;2.48;92.90;97863.16;1766347;80;20285;-70
2021/04/06 01:42:24;;;;;;;;;;;;;;;2.47;93.15;97866.83;1766775;80;21202;-70
2021/04/06 01:44:56;;;;;;;;;;;;;;;2.49;92.95;97863.95;1792786;80;20163;-70
2021/04/06 01:47:25;;;;;;;;;;;;;;;2.50;92.68;97865.54;1792987;80;20147;-70
2021/04/06 01:49:53;;;;;;;;;;;;;;;2.51;92.42;97867.95;1792920;80;20171;-70
2021/04/06 01:52:23;;;;;;;;;;;;;;;2.54;91.47;97874.61;1792642;78;20533;-70
2021/04/06 01:54:55;;;;;;;;;;;;;;;2.55;92.34;97866.44;1792876;80;21349;-71
2021/04/06 01:57:26;;;;;;;;;;;;;;;2.56;91.59;97852.66;1792829;80;20190;-70
2021/04/06 01:59:56;;;;;;;;;;;;;;;2.55;91.58;97869.61;1792874;80;20198;-70
2021/04/06 02:02:28;;;;;;;;;;;;;;;2.56;92.23;97862.73;1792871;80;20444;-70
2021/04/06 02:04:57;;;;;;;;;;;;;;;2.58;91.68;97861.17;1792994;80;20152;-70
2021/04/06 02:07:32;;;;;;;;;;;;;;;2.63;91.18;97865.75;1792920;80;21189;-70
2021/04/06 02:09:59;;;;;;;;;;;;;;;2.68;91.20;97869.27;1792794;80;20171;-70
2021/04/06 02:12:26;;;;;;;;;;;;;;;2.73;90.28;97860.06;1792981;80;20154;-70
2021/04/06 02:14:58;;;;;;;;;;;;;;;2.76;90.97;97860.88;1792856;80;20175;-70
2021/04/06 02:17:26;;;;;;;;;;;;;;;2.73;90.70;97865.36;1792901;80;20175;-70
2021/04/06 02:19:53;;;;;;;;;;;;;;;2.74;89.90;97866.98;1766710;80;21135;-70
2021/04/06 02:22:22;;;;;;;;;;;;;;;2.76;90.21;97868.83;1793150;80;20163;-70
2021/04/06 02:24:51;;;;;;;;;;;;;;;2.74;89.75;97859.03;1793289;80;20160;-70
2021/04/06 02:27:30;;;;;;;;;;;;;;;2.80;89.13;97861.22;1790866;80;20223;-69
2021/04/06 02:29:59;;;;;;;;;;;;;;;2.84;89.90;97865.48;1789127;80;20521;-71
2021/04/06 02:32:29;;;;;;;;;;;;;;;2.79;89.38;97864.39;1789571;80;21315;-71
2021/04/06 02:35:00;;;;;;;;;;;;;;;2.82;89.14;97862.27;1789537;80;20154;-70
2021/04/06 02:37:30;;;;;;;;;;;;;;;2.83;89.30;97861.25;1789567;80;20154;-70
2021/04/06 02:39:59;;;;;;;;;;;;;;;2.84;89.11;97864.96;1789470;80;20131;-71
2021/04/06 02:42:30;;;;;;;;;;;;;;;2.79;89.68;97861.74;1789582;80;20135;-70
2021/04/06 02:45:15;;;;;;;;;;;;;;;2.74;90.24;97866.15;1793127;78;21223;-70
2021/04/06 02:47:51;;;;;;;;;;;;;;;2.73;90.29;97864.03;1805870;79;20653;-70
2021/04/06 02:50:23;;;;;;;;;;;;;;;2.73;90.50;97860.06;1805818;79;20236;-69
2021/04/06 02:52:52;;;;;;;;;;;;;;;2.68;91.16;97856.55;1805877;79;20220;-70
2021/04/06 02:55:21;;;;;;;;;;;;;;;2.63;91.94;97855.15;1805799;79;20280;-70
2021/04/06 02:57:50;;;;;;;;;;;;;;;2.58;92.96;97861.97;1805832;79;21200;-70
2021/04/06 03:00:31;;;;;;;;;;;;;;;2.57;93.16;97851.11;1805803;79;20130;-70
2021/04/06 03:03:01;;;;;;;;;;;;;;;2.59;92.59;97856.14;1805897;79;20125;-70
2021/04/06 03:05:39;;;;;;;;;;;;;;;2.62;92.35;97847.73;1805779;79;20145;-70
2021/04/06 03:08:08;;;;;;;;;;;;;;;2.66;92.09;97848.03;1805908;79;20153;-71
2021/04/06 03:10:38;;;;;;;;;;;;;;;2.66;91.91;97842.20;1805771;79;22262;-71
2021/04/06 03:13:11;;;;;;;;;;;;;;;2.67;91.67;97846.48;1805914;79;20173;-71
2021/04/06 03:15:42;;;;;;;;;;;;;;;2.72;91.46;97852.34;1806016;79;20129;-71
2021/04/06 03:18:12;;;;;;;;;;;;;;;2.74;91.56;97854.23;1805997;79;20511;-71
2021/04/06 03:20:41;;;;;;;;;;;;;;;2.72;91.03;97853.17;1806002;79;20480;-72
2021/04/06 03:23:09;;;;;;;;;;;;;;;2.71;92.23;97856.84;1806010;79;21342;-71
2021/04/06 03:25:37;;;;;;;;;;;;;;;2.67;91.47;97851.78;1805944;79;20153;-71
2021/04/06 03:28:08;;;;;;;;;;;;;;;2.72;90.64;97850.52;1808567;79;20503;-71
2021/04/06 03:30:35;;;;;;;;;;;;;;;2.76;89.94;97852.14;1808099;79;20149;-71
2021/04/06 03:33:08;;;;;;;;;;;;;;;2.81;90.34;97851.41;1809207;79;20507;-71
2021/04/06 03:35:38;;;;;;;;;;;;;;;2.83;89.92;97851.97;1809193;79;22114;-71
2021/04/06 03:38:08;;;;;;;;;;;;;;;2.81;90.19;97860.69;1809148;79;20496;-71
2021/04/06 03:40:37;;;;;;;;;;;;;;;2.77;90.44;97862.50;1809055;79;20125;-72
2021/04/06 03:43:19;;;;;;;;;;;;;;;2.76;90.35;97863.53;1809131;79;20640;-71
2021/04/06 03:45:57;;;;;;;;;;;;;;;2.73;91.06;97864.03;1809099;79;20109;-71
2021/04/06 03:48:26;;;;;;;;;;;;;;;2.73;90.78;97870.66;1809138;79;21295;-71
2021/04/06 03:50:54;;;;;;;;;;;;;;;2.78;90.36;97873.38;1809012;79;20117;-71
2021/04/06 03:53:23;;;;;;;;;;;;;;;2.87;89.86;97870.32;1809229;79;20511;-71
2021/04/06 03:56:08;;;;;;;;;;;;;;;2.88;89.53;97871.38;1809093;79;20153;-71
2021/04/06 03:58:56;;;;;;;;;;;;;;;2.88;89.78;97874.03;1809122;79;20110;-71
2021/04/06 04:01:18;;;;;;;;;;;;;;;2.94;89.64;97866.94;1808949;79;20685;-71
2021/04/06 04:03:45;;;;;;;;;;;;;;;2.92;89.67;97863.77;1809146;79;20539;-71
2021/04/06 04:06:23;;;;;;;;;;;;;;;2.89;89.56;97873.00;1809053;79;20138;-71
2021/04/06 04:08:59;;;;;;;;;;;;;;;2.98;89.99;97878.67;1854982;77;20154;-70
2021/04/06 04:11:27;;;;;;;;;;;;;;;2.96;89.68;97874.13;1822578;78;20487;-69
2021/04/06 04:14:07;;;;;;;;;;;;;;;2.98;90.30;97872.04;1822797;78;22162;-70
2021/04/06 04:16:36;;;;;;;;;;;;;;;2.99;89.46;97880.29;1822541;78;20131;-70
2021/04/06 04:19:04;;;;;;;;;;;;;;;3.02;89.99;97876.34;1822650;78;20152;-71
2021/04/06 04:21:32;;;;;;;;;;;;;;;2.99;90.85;97878.96;1822631;78;20216;-70
2021/04/06 04:23:59;;;;;;;;;;;;;;;2.97;89.62;97880.52;1822664;78;20506;-69
2021/04/06 04:26:28;;;;;;;;;;;;;;;3.04;90.17;97884.33;1822606;78;21205;-70
2021/04/06 04:28:56;;;;;;;;;;;;;;;3.05;89.64;97887.24;1815458;78;20225;-71
2021/04/06 04:31:26;;;;;;;;;;;;;;;3.10;89.30;97888.63;1790276;79;20153;-70
2021/04/06 04:33:53;;;;;;;;;;;;;;;3.11;89.02;97891.58;1790207;79;20165;-70
2021/04/06 04:36:22;;;;;;;;;;;;;;;3.15;88.64;97898.50;1790461;80;20481;-70
2021/04/06 04:38:49;;;;;;;;;;;;;;;3.17;88.26;97891.91;1790320;80;22327;-70
2021/04/06 04:41:17;;;;;;;;;;;;;;;3.19;87.90;97885.84;1790223;79;20130;-70
2021/04/06 04:43:45;;;;;;;;;;;;;;;3.22;88.32;97887.98;1790320;80;20149;-70
2021/04/06 04:46:13;;;;;;;;;;;;;;;3.22;89.19;97889.31;1790288;80;20192;-70
2021/04/06 04:48:41;;;;;;;;;;;;;;;3.23;88.40;97887.45;1790332;79;20225;-70
2021/04/06 04:51:08;;;;;;;;;;;;;;;3.30;88.91;97896.56;1790377;79;22527;-70
2021/04/06 04:53:36;;;;;;;;;;;;;;;3.33;87.62;97898.71;1790240;80;20482;-71
2021/04/06 04:56:06;;;;;;;;;;;;;;;3.36;87.59;97898.24;1790252;80;20133;-70
2021/04/06 04:58:34;;;;;;;;;;;;;;;3.38;87.31;97898.27;1790277;79;20118;-69
2021/04/06 05:01:01;;;;;;;;;;;;;;;3.43;88.24;97899.66;1790384;79;20591;-69
2021/04/06 05:03:32;;;;;;;;;;;;;;;3.46;88.21;97897.56;1790388;80;22157;-70
2021/04/06 05:06:02;;;;;;;;;;;;;;;3.50;87.43;97899.97;1790233;79;20184;-70
2021/04/06 05:08:30;;;;;;;;;;;;;;;3.52;88.10;97897.34;1795707;79;20113;-69
2021/04/06 05:10:57;;;;;;;;;;;;;;;3.57;87.14;97901.38;1798956;79;20149;-70
2021/04/06 05:13:27;;;;;;;;;;;;;;;3.58;87.40;97899.55;1798871;79;20137;-70
2021/04/06 05:15:54;;;;;;;;;;;;;;;3.64;87.60;97899.34;1798930;79;21307;-70
2021/04/06 05:18:22;;;;;;;;;;;;;;;3.69;88.40;97892.50;1798814;79;20192;-70
2021/04/06 05:20:52;;;;;;;;;;;;;;;3.73;87.31;97892.28;1798376;80;20157;-70
2021/04/06 05:23:21;;;;;;;;;;;;;;;3.73;86.64;97892.28;1798456;79;20129;-70
2021/04/06 05:25:49;;;;;;;;;;;;;;;3.81;87.64;97903.77;1798480;79;20522;-70
2021/04/06 05:28:17;;;;;;;;;;;;;;;3.85;86.52;97907.53;1798349;80;21191;-70
2021/04/06 05:30:46;;;;;;;;;;;;;;;3.91;86.25;97909.70;1782771;80;20157;-70
2021/04/06 05:33:15;;;;;;;;;;;;;;;3.97;86.19;97904.70;1796967;80;20216;-71
2021/04/06 05:35:44;;;;;;;;;;;;;;;4.00;85.91;97909.00;1796880;79;20216;-71
2021/04/06 05:38:12;;;;;;;;;;;;;;;4.06;85.72;97917.80;1797188;80;20415;-71
2021/04/06 05:40:45;;;;;;;;;;;;;;;4.12;84.92;97920.80;1796743;79;21628;-71
2021/04/06 05:43:15;;;;;;;;;;;;;;;4.17;83.96;97926.16;1796186;80;20244;-69
2021/04/06 05:45:48;;;;;;;;;;;;;;;4.28;83.51;97929.69;1797019;79;20518;-68
2021/04/06 05:48:19;;;;;;;;;;;;;;;4.35;83.46;97926.30;1797004;80;20229;-69
2021/04/06 05:50:52;;;;;;;;;;;;;;;4.44;82.54;97932.77;1796846;79;20255;-70
2021/04/06 05:53:21;;;;;;;;;;;;;;;4.54;82.43;97931.25;1797320;79;21153;-70
2021/04/06 05:55:49;;;;;;;;;;;;;;;4.64;81.91;97925.47;1796876;80;20298;-70
2021/04/06 05:58:17;;;;;;;;;;;;;;;4.72;80.94;97923.66;1796910;79;20228;-71
2021/04/06 06:00:44;;;;;;;;;;;;;;;4.82;79.50;97930.11;1798294;79;20237;-71
2021/04/06 06:03:13;;;;;;;;;;;;;;;4.83;78.96;97927.20;1806966;79;20783;-71
2021/04/06 06:05:42;;;;;;;;;;;;;;;4.88;78.81;97924.58;1809738;79;20693;-71
2021/04/06 06:08:17;;;;;;;;;;;;;;;4.96;80.08;97931.80;1807111;78;20300;-71
2021/04/06 06:10:44;;;;;;;;;;;;;;;5.00;77.08;97931.03;1803429;79;20402;-71
2021/04/06 06:13:24;;;;;;;;;;;;;;;5.06;77.90;97935.84;1803785;79;20362;-69
2021/04/06 06:16:11;;;;;;;;;;;;;;;5.12;77.08;97937.46;1803619;79;20323;-70
2021/04/06 06:18:57;;;;;;;;;;;;;;;5.16;76.66;97928.71;1803570;79;22057;-70
2021/04/06 06:21:43;;;;;;;;;;;;;;;5.27;76.25;97936.77;1804390;79;20137;-72
2021/04/06 06:24:28;;;;;;;;;;;;;;;5.45;75.77;97934.19;1804563;78;20355;-70
2021/04/06 06:26:57;;;;;;;;;;;;;;;5.56;74.96;97936.63;1804583;79;20237;-71
2021/04/06 06:29:33;;;;;;;;;;;;;;;5.73;73.98;97939.09;1797135;79;20602;-68
2021/04/06 06:32:00;;;;;;;;;;;;;;;6.00;73.27;97944.25;1804109;79;21334;-71
2021/04/06 06:34:36;;;;;;;;;;;;;;;6.19;72.13;97950.40;1803936;79;20224;-71
2021/04/06 06:37:14;;;;;;;;;;;;;;;6.31;71.21;97944.28;1804239;79;20201;-71
2021/04/06 06:39:55;;;;;;;;;;;;;;;6.44;71.56;97954.44;1804533;79;20292;-71
2021/04/06 06:42:29;;;;;;;;;;;;;;;6.51;70.40;97951.48;1797427;79;20241;-71
2021/04/06 06:44:57;;;;;;;;;;;;;;;6.63;69.33;97943.23;1804396;79;22149;-72
2021/04/06 06:47:26;;;;;;;;;;;;;;;6.78;68.74;97941.09;1804254;79;20264;-69
2021/04/06 06:49:55;;;;;;;;;;;;;;;6.79;68.13;97943.50;1803987;79;20169;-71
2021/04/06 06:52:27;;;;;;;;;;;;;;;6.89;67.84;97948.02;1804262;79;20206;-70
2021/04/06 06:55:16;;;;;;;;;;;;;;;6.99;67.08;97950.67;1803729;79;20304;-71
2021/04/06 06:57:47;;;;;;;;;;;;;;;6.98;67.14;97954.42;1804780;79;21644;-71
2021/04/06 07:00:20;;;;;;;;;;;;;;;7.14;68.44;97966.39;1804273;79;20642;-70
2021/04/06 07:02:48;;;;;;;;;;;;;;;7.35;67.57;97969.28;1804336;79;20296;-70
2021/04/06 07:05:21;;;;;;;;;;;;;;;7.24;65.62;97965.83;1804061;79;20500;-70
2021/04/06 07:08:00;;;;;;;;;;;;;;;7.27;64.50;97966.61;1803514;78;20288;-70
2021/04/06 07:10:42;;;;;;;;;;;;;;;7.14;65.70;97963.72;1806574;79;21375;-70
2021/04/06 07:13:33;;;;;;;;;;;;;;;7.26;65.57;97973.57;1806501;79;20394;-71
2021/04/06 07:16:03;;;;;;;;;;;;;;;7.45;66.12;97973.80;1806138;79;20283;-71
2021/04/06 07:18:30;;;;;;;;;;;;;;;7.57;65.31;97978.30;1806581;79;20280;-71
2021/04/06 07:21:01;;;;;;;;;;;;;;;7.69;65.61;97985.97;1806275;79;20233;-70
2021/04/06 07:23:37;;;;;;;;;;;;;;;7.73;63.92;97982.48;1806412;79;22052;-70
2021/04/06 07:26:08;;;;;;;;;;;;;;;7.77;64.99;97988.64;1806666;79;20233;-70
2021/04/06 07:28:48;;;;;;;;;;;;;;;;;;;;;
2021/04/06 07:31:21;;;;;;;;;;;;;;;7.96;63.96;97994.94;1850962;77;20225;-70
2021/04/06 07:33:49;;;;;;;;;;;;;;;7.77;63.79;97996.11;1820082;78;20785;-69
2021/04/06 07:36:19;;;;;;;;;;;;;;;7.87;64.05;97998.73;1820036;78;21367;-70
2021/04/06 07:38:48;;;;;;;;;;;;;;;8.04;64.26;97997.59;1819190;78;21235;-72
2021/04/06 07:41:18;;;;;;;;;;;;;;;8.08;63.32;97995.41;1820039;78;20184;-71
2021/04/06 07:43:47;;;;;;;;;;;;;;;8.29;64.07;97994.77;1819956;78;20208;-72
2021/04/06 07:46:37;;;;;;;;;;;;;;;8.30;62.10;97985.67;1820001;78;20184;-71
2021/04/06 07:49:09;;;;;;;;;;;;;;;8.46;63.31;97993.64;1816893;78;22375;-72
2021/04/06 07:51:50;;;;;;;;;;;;;;;8.45;61.76;97996.86;1812922;79;20192;-73
2021/04/06 07:54:22;;;;;;;;;;;;;;;8.46;61.64;98001.66;1813447;79;20137;-71
2021/04/06 07:57:21;;;;;;;;;;;;;;;8.68;60.12;98002.04;1812744;79;20300;-72
2021/04/06 07:59:51;;;;;;;;;;;;;;;8.44;60.90;98005.15;1726685;83;20363;-71
2021/04/06 08:02:21;;;;;;;;;;;;;;;8.56;60.70;98010.95;1726744;83;21568;-71
2021/04/06 08:04:52;;;;;;;;;;;;;;;8.61;59.73;98016.27;1726275;81;20300;-71
2021/04/06 08:07:25;;;;;;;;;;;;;;;8.76;59.38;98018.81;1726881;83;20792;-72
2021/04/06 08:09:56;;;;;;;;;;;;;;;8.65;59.33;98009.29;1726701;83;20201;-72
2021/04/06 08:12:35;;;;;;;;;;;;;;;8.57;60.44;98016.03;1726645;83;20586;-72
2021/04/06 08:15:09;;;;;;;;;;;;;;;8.65;60.35;98012.48;1727188;83;21373;-71
2021/04/06 08:18:04;;;;;;;;;;;;;;;8.64;59.55;98014.36;1726747;83;20310;-71
2021/04/06 08:20:36;;;;;;;;;;;;;;;8.84;58.88;98012.61;1644967;87;20311;-72
2021/04/06 08:23:14;;;;;;;;;;;;;;;9.07;58.25;98019.92;1654198;86;20280;-72
2021/04/06 08:25:46;;;;;;;;;;;;;;;9.06;58.48;98020.19;1650281;85;20422;-73
2021/04/06 08:28:32;;;;;;;;;;;;;;;9.37;56.74;98027.41;1650853;87;22173;-72
2021/04/06 08:31:26;;;;;;;;;;;;;;;9.16;56.14;98028.13;1651360;87;20600;-72
2021/04/06 08:33:55;;;;;;;;;;;;;;;9.11;56.46;98026.29;1652142;87;20322;-72
2021/04/06 08:36:26;;;;;;;;;;;;;;;9.28;56.31;98036.58;1648874;85;20336;-72
2021/04/06 08:38:55;;;;;;;;;;;;;;;9.27;55.46;98030.98;1697747;84;20304;-72
2021/04/06 08:41:27;;;;;;;;;;;;;;;8.96;55.50;98029.10;1677664;84;21214;-72
2021/04/06 08:43:56;;;;;;;;;;;;;;;9.12;55.65;98031.12;1704956;81;20678;-71
2021/04/06 08:46:42;;;;;;;;;;;;;;;9.23;55.37;98028.09;1758673;81;20268;-72
2021/04/06 08:49:13;;;;;;;;;;;;;;;9.27;56.77;98033.66;1757657;81;20283;-72
2021/04/06 08:51:43;;;;;;;;;;;;;;;9.40;56.72;98029.52;1751214;81;20314;-72
2021/04/06 08:54:17;;;;;;;;;;;;;;;9.77;56.55;98030.73;1739813;82;21219;-72
2021/04/06 08:57:02;;;;;;;;;;;;;;;10.08;55.22;98028.49;1739746;82;20208;-72
2021/04/06 08:59:34;;;;;;;;;;;;;;;10.41;55.86;98038.00;1741139;82;20155;-72
2021/04/06 09:02:05;;;;;;;;;;;;;;;10.14;55.15;98043.97;1741251;82;20505;-71
2021/04/06 09:04:36;;;;;;;;;;;;;;;10.19;55.76;98039.88;1741487;82;20242;-71
2021/04/06 09:07:26;;;;;;;;;;;;;;;10.33;55.17;98039.45;1734844;82;21208;-71
2021/04/06 09:10:03;;;;;;;;;;;;;;;10.24;56.44;98048.67;1740867;82;20262;-71
2021/04/06 09:12:30;;;;;;;;;;;;;;;9.82;55.92;98038.71;1740899;82;20536;-70
2021/04/06 09:15:00;;;;;;;;;;;;;;;9.88;56.52;98041.61;1740118;82;20643;-72
2021/04/06 09:17:28;;;;;;;;;;;;;;;9.76;56.98;98026.47;1741023;82;20505;-71
2021/04/06 09:19:55;;;;;;;;;;;;;;;10.15;56.11;98034.85;1710434;83;21216;-71
2021/04/06 09:22:23;;;;;;;;;;;;;;;10.40;55.61;98033.74;1731403;83;20238;-71
2021/04/06 09:24:51;;;;;;;;;;;;;;;10.35;54.63;98031.12;1731992;83;20501;-71
2021/04/06 09:27:18;;;;;;;;;;;;;;;10.23;55.77;98037.67;1731819;83;20240;-71
2021/04/06 09:29:47;;;;;;;;;;;;;;;10.13;54.65;98033.79;1731909;83;20247;-71
2021/04/06 09:32:18;;;;;;;;;;;;;;;10.06;55.21;98027.43;1732012;83;21375;-71
2021/04/06 09:34:49;;;;;;;;;;;;;;;10.25;54.89;98039.53;1731387;83;20234;-71
2021/04/06 09:37:20;;;;;;;;;;;;;;;10.51;54.52;98041.36;1731571;82;20255;-71
2021/04/06 09:39:54;;;;;;;;;;;;;;;10.58;53.49;98046.34;1731858;83;20223;-71
2021/04/06 09:42:22;;;;;;;;;;;;;;;10.85;53.51;98032.80;1731654;82;20230;-71
2021/04/06 09:44:51;;;;;;;;;;;;;;;10.77;54.91;98036.95;1731721;83;22232;-71
2021/04/06 09:47:21;;;;;;;;;;;;;;;10.70;54.14;98042.67;1731809;83;20310;-71
2021/04/06 09:49:51;;;;;;;;;;;;;;;10.97;54.19;98039.86;1731606;83;20243;-71
2021/04/06 09:52:23;;;;;;;;;;;;;;;10.63;55.04;98045.48;1731934;83;20243;-71
2021/04/06 09:54:54;;;;;;;;;;;;;;;10.85;54.85;98040.34;1730664;82;20317;-71
2021/04/06 09:57:34;;;;;;;;;;;;;;;11.33;56.35;98041.41;1731177;82;20203;-70
2021/04/06 10:00:08;;;;;;;;;;;;;;;11.49;53.14;98041.13;1731482;83;20140;-71
2021/04/06 10:02:36;;;;;;;;;;;;;;;11.13;55.21;98045.24;1731736;82;20345;-72
2021/04/06 10:05:19;;;;;;;;;;;;;;;10.32;57.32;98047.81;1731407;81;20308;-71
2021/04/06 10:07:48;;;;;;;;;;;;;;;10.02;59.68;98038.49;1731757;83;20188;-71
2021/04/06 10:10:27;;;;;;;;;;;;;;;10.20;59.39;98045.52;1731500;83;21204;-71
2021/04/06 10:12:56;;;;;;;;;;;;;;;10.44;57.08;98039.58;1709790;83;20211;-71
2021/04/06 10:15:26;;;;;;;;;;;;;;;10.96;57.38;98050.36;1730760;83;20624;-71
2021/04/06 10:17:53;;;;;;;;;;;;;;;11.82;53.76;98057.20;1731985;83;20518;-71
2021/04/06 10:20:26;;;;;;;;;;;;;;;11.69;53.29;98036.74;1709360;82;20258;-71
2021/04/06 10:22:56;;;;;;;;;;;;;;;11.90;54.43;98044.44;1702372;84;21133;-75
2021/04/06 10:25:27;;;;;;;;;;;;;;;12.20;52.78;98042.48;1702364;84;20225;-72
2021/04/06 10:27:57;;;;;;;;;;;;;;;12.39;54.11;98040.98;1702957;84;20281;-71
2021/04/06 10:30:49;;;;;;;;;;;;;;;11.75;56.21;98045.50;1702875;84;20325;-71
2021/04/06 10:33:19;;;;;;;;;;;;;;;10.87;60.68;98033.31;1702483;84;20237;-70
2021/04/06 10:35:59;;;;;;;;;;;;;;;10.95;63.85;98039.38;1702671;84;21207;-70
2021/04/06 10:38:34;;;;;;;;;;;;;;;11.05;62.62;98033.02;1702979;84;20153;-70
2021/04/06 10:41:06;;;;;;;;;;;;;;;11.42;61.67;98036.72;1702505;84;20190;-70
2021/04/06 10:43:41;;;;;;;;;;;;;;;11.47;62.71;98040.66;1702268;84;20635;-71
2021/04/06 10:46:15;;;;;;;;;;;;;;;11.47;61.84;98040.10;1702286;84;20292;-71
2021/04/06 10:48:45;;;;;;;;;;;;;;;11.68;60.07;98039.72;1702592;84;22401;-71
2021/04/06 10:51:16;;;;;;;;;;;;;;;11.63;61.50;98035.78;1701908;83;20144;-70
2021/04/06 10:53:49;;;;;;;;;;;;;;;11.61;61.99;98038.76;1702896;84;20146;-71
2021/04/06 10:56:20;;;;;;;;;;;;;;;11.31;63.79;98042.80;1701801;84;20229;-71
2021/04/06 10:58:54;;;;;;;;;;;;;;;10.60;67.82;98042.83;1702892;84;20240;-71
2021/04/06 11:01:24;;;;;;;;;;;;;;;10.54;67.58;98038.64;1702813;83;22282;-71
2021/04/06 11:03:55;;;;;;;;;;;;;;;10.08;68.25;98038.67;1702945;84;20122;-71
2021/04/06 11:06:35;;;;;;;;;;;;;;;9.94;70.20;98030.27;1702400;84;20213;-71
2021/04/06 11:09:20;;;;;;;;;;;;;;;10.05;69.95;98031.20;1702727;84;20412;-70
2021/04/06 11:11:52;;;;;;;;;;;;;;;10.10;71.06;98037.05;1702568;84;20237;-71
2021/04/06 11:14:23;;;;;;;;;;;;;;;9.78;74.83;98034.48;1702319;84;22130;-71
2021/04/06 11:16:51;;;;;;;;;;;;;;;9.75;76.29;98033.72;1702753;84;20141;-71
2021/04/06 11:19:27;;;;;;;;;;;;;;;9.63;76.09;98037.34;1702686;82;20137;-71
2021/04/06 11:21:57;;;;;;;;;;;;;;;9.73;75.49;98036.42;1702895;84;20316;-71
2021/04/06 11:24:28;;;;;;;;;;;;;;;10.02;76.94;98046.53;1698395;84;20229;-70
2021/04/06 11:26:57;;;;;;;;;;;;;;;9.95;76.27;98051.44;1670415;84;21405;-70
2021/04/06 11:29:29;;;;;;;;;;;;;;;10.03;77.62;98049.45;1696705;84;20193;-71
2021/04/06 11:32:12;;;;;;;;;;;;;;;9.95;78.16;98042.06;1696204;84;20126;-70
2021/04/06 11:34:44;;;;;;;;;;;;;;;9.75;76.05;98041.75;1662601;84;20314;-70
2021/04/06 11:37:13;;;;;;;;;;;;;;;9.27;80.17;98039.56;1639439;87;20309;-69
2021/04/06 11:39:44;;;;;;;;;;;;;;;9.24;82.98;98038.25;1650939;87;21226;-69
2021/04/06 11:42:13;;;;;;;;;;;;;;;9.37;83.26;98048.28;1650616;87;20341;-70
2021/04/06 11:44:42;;;;;;;;;;;;;;;9.18;83.35;98038.02;1649976;87;20363;-70
2021/04/06 11:47:10;;;;;;;;;;;;;;;8.92;86.33;98019.52;1649632;87;20335;-71
2021/04/06 11:49:38;;;;;;;;;;;;;;;8.90;88.38;98028.36;1649722;87;20339;-70
2021/04/06 11:52:07;;;;;;;;;;;;;;;8.94;87.61;98024.05;1649790;87;21164;-70
2021/04/06 11:54:35;;;;;;;;;;;;;;;8.98;89.60;98021.60;1649617;87;20762;-70
2021/04/06 11:57:04;;;;;;;;;;;;;;;8.78;88.95;98023.36;1649791;87;20281;-70
2021/04/06 11:59:32;;;;;;;;;;;;;;;8.52;90.00;98019.26;1692663;84;20304;-70
2021/04/06 12:02:00;;;;;;;;;;;;;;;7.99;94.47;98006.98;1726373;83;20294;-70
2021/04/06 12:04:30;;;;;;;;;;;;;;;7.72;97.91;98005.48;1727547;82;20682;-70
2021/04/06 12:06:58;;;;;;;;;;;;;;;7.66;97.28;98008.69;1727243;83;20620;-70
2021/04/06 12:09:28;;;;;;;;;;;;;;;7.65;99.02;98007.64;1727280;82;20219;-70
2021/04/06 12:11:56;;;;;;;;;;;;;;;7.47;100.00;98005.83;1726830;83;20235;-71
2021/04/06 12:14:24;;;;;;;;;;;;;;;7.64;100.00;97998.83;1727441;82;20494;-71
2021/04/06 12:16:53;;;;;;;;;;;;;;;7.74;100.00;98001.98;1727110;82;21422;-70
2021/04/06 12:19:29;;;;;;;;;;;;;;;7.88;100.00;98000.32;1702668;83;20250;-71
2021/04/06 12:21:56;;;;;;;;;;;;;;;7.71;100.00;97998.52;1728157;82;20132;-71
2021/04/06 12:24:26;;;;;;;;;;;;;;;7.78;99.81;98004.92;1726831;83;20297;-71
2021/04/06 12:26:54;;;;;;;;;;;;;;;7.49;100.00;98004.20;1727201;83;20290;-72
2021/04/06 12:29:22;;;;;;;;;;;;;;;7.34;100.00;97990.90;1727137;82;22241;-72
2021/04/06 12:31:49;;;;;;;;;;;;;;;7.34;100.00;97993.56;1727327;82;20266;-71
2021/04/06 12:34:23;;;;;;;;;;;;;;;7.31;100.00;97997.58;1726743;82;20251;-71
2021/04/06 12:36:53;;;;;;;;;;;;;;;7.50;100.00;97999.14;1740358;82;20293;-71
2021/04/06 12:39:22;;;;;;;;;;;;;;;7.32;100.00;97985.02;1713947;82;20281;-71
2021/04/06 12:41:50;;;;;;;;;;;;;;;7.25;100.00;98001.31;1739774;82;21203;-71
2021/04/06 12:44:17;;;;;;;;;;;;;;;6.87;100.00;98000.83;1734141;82;20277;-71
2021/04/06 12:46:46;;;;;;;;;;;;;;;6.72;100.00;97996.30;1733846;82;20266;-71
2021/04/06 12:49:15;;;;;;;;;;;;;;;6.82;100.00;97996.83;1734569;82;20279;-72
2021/04/06 12:51:43;;;;;;;;;;;;;;;6.74;100.00;97990.17;1734555;82;20302;-73
2021/04/06 12:54:11;;;;;;;;;;;;;;;6.51;100.00;97990.67;1734239;82;22789;-72
2021/04/06 12:56:39;;;;;;;;;;;;;;;6.68;100.00;97989.89;1734225;82;20227;-69
2021/04/06 12:59:07;;;;;;;;;;;;;;;6.59;100.00;97994.97;1733953;82;20294;-71
2021/04/06 13:01:37;;;;;;;;;;;;;;;6.57;100.00;97986.97;1733958;82;20271;-71
2021/04/06 13:04:06;;;;;;;;;;;;;;;6.32;100.00;97986.38;1734634;82;20316;-71
2021/04/06 13:06:37;;;;;;;;;;;;;;;6.27;100.00;97983.71;1734026;82;21492;-71
2021/04/06 13:09:07;;;;;;;;;;;;;;;6.23;100.00;97983.45;1734064;82;20176;-70
2021/04/06 13:11:35;;;;;;;;;;;;;;;6.26;100.00;97984.25;1734545;82;20282;-72
2021/04/06 13:14:03;;;;;;;;;;;;;;;6.40;100.00;97984.55;1734322;82;20565;-70
2021/04/06 13:16:33;;;;;;;;;;;;;;;6.41;100.00;97984.80;1734437;82;20321;-69
2021/04/06 13:19:01;;;;;;;;;;;;;;;6.22;100.00;97983.16;1734718;82;22085;-71